Missanabie, Canada
Current Conditions -  °F | °C
As of 7:00 PM on Friday 21 Nov 2014 (Local Time) from CYXZ Reporting Station
Blowing Snow Blowing Snow  
Wind Chill: 11°   Ceiling: 2300
Heat Index: 25°   Visibility: 15mi
Dew Point: 18°   Wind: 17mph
Humidity: 74%   Direction: 200°SSW
Pressure: 29.95"   Gusts: 32mph
Location:  48.3°N, 84.08°W
Report Text: CYXZ 220000Z 20015G28KT 15SM BLSN OVC023 M04/M08 A2995 RMK SC8 LAST OBS/NEXT 221100UTC PRESFR SLP168
Loading
Personal Weather Stations






























Interactive Weather Map New forecast layout! Learn more

10-Day Weather Forecast

Advertisements
Track Severe Weather on mobile